createdAt,value
2018-01-18T00:00:00.446Z,1003.11
2018-01-18T00:01:00.413Z,1003.05
2018-01-18T00:02:00.400Z,1003.05
2018-01-18T00:03:00.378Z,1003.03
2018-01-18T00:04:00.361Z,1003.01
2018-01-18T00:05:00.354Z,1003.00
2018-01-18T00:06:00.321Z,1003.04
2018-01-18T00:07:00.320Z,1002.95
2018-01-18T00:08:00.286Z,1002.90
2018-01-18T00:09:00.263Z,1002.89
2018-01-18T00:10:00.253Z,1002.88
2018-01-18T00:11:00.230Z,1002.90
2018-01-18T00:12:00.227Z,1002.87
2018-01-18T00:13:00.192Z,1002.85
2018-01-18T00:14:00.174Z,1002.80
2018-01-18T00:15:00.155Z,1002.83
2018-01-18T00:16:00.137Z,1002.74
2018-01-18T00:17:00.121Z,1002.81
2018-01-18T00:18:00.118Z,1002.78
2018-01-18T00:19:00.084Z,1002.75
2018-01-18T00:20:00.068Z,1002.72
2018-01-18T00:21:00.045Z,1002.76
2018-01-18T00:22:00.042Z,1002.68
2018-01-18T00:23:00.023Z,1002.67
2018-01-18T00:23:59.989Z,1002.73
2018-01-18T00:25:00.031Z,1002.70
2018-01-18T00:25:59.956Z,1002.67
2018-01-18T00:26:59.945Z,1002.62
2018-01-18T00:27:59.917Z,1002.63
2018-01-18T00:28:59.899Z,1002.59
2018-01-18T00:29:59.878Z,1002.57
2018-01-18T00:30:59.877Z,1002.58
2018-01-18T00:31:59.846Z,1002.53
2018-01-18T00:32:59.824Z,1002.52
2018-01-18T00:33:59.802Z,1002.52
2018-01-18T00:34:59.786Z,1002.49
2018-01-18T00:35:59.768Z,1002.54
2018-01-18T00:36:59.767Z,1002.51
2018-01-18T00:37:59.735Z,1002.49
2018-01-18T00:38:59.737Z,1002.45
2018-01-18T00:39:59.696Z,1002.43
2018-01-18T00:40:59.694Z,1002.42
2018-01-18T00:41:59.659Z,1002.38
2018-01-18T00:42:59.702Z,1002.37
2018-01-18T00:43:59.620Z,1002.24
2018-01-18T00:44:59.599Z,1002.32
2018-01-18T00:45:59.601Z,1002.26
2018-01-18T00:46:59.564Z,1002.28
2018-01-18T00:47:59.550Z,1002.26
2018-01-18T00:48:59.548Z,1002.19
2018-01-18T00:49:59.517Z,1002.15
2018-01-18T00:50:59.494Z,1002.12
2018-01-18T00:51:59.493Z,1002.06
2018-01-18T00:52:59.471Z,1002.03
2018-01-18T00:53:59.437Z,1001.99
2018-01-18T00:54:59.436Z,1001.91
2018-01-18T00:55:59.405Z,1001.86
2018-01-18T00:56:59.384Z,1001.79
2018-01-18T00:57:59.382Z,1001.73
2018-01-18T00:58:59.348Z,1001.69
2018-01-18T00:59:59.330Z,1001.68
2018-01-18T01:00:59.325Z,1001.60
2018-01-18T01:01:59.289Z,1001.65
2018-01-18T01:02:59.276Z,1001.60
2018-01-18T01:03:59.268Z,1001.54
2018-01-18T01:04:59.238Z,1001.47
2018-01-18T01:05:59.216Z,1001.43
2018-01-18T01:06:59.202Z,1001.47
2018-01-18T01:07:59.194Z,1001.41
2018-01-18T01:08:59.168Z,1001.40
2018-01-18T01:09:59.151Z,1001.38
2018-01-18T01:10:59.145Z,1001.36
2018-01-18T01:11:59.111Z,1001.36
2018-01-18T01:12:59.091Z,1001.31
2018-01-18T01:13:59.078Z,1001.29
2018-01-18T01:14:59.058Z,1001.36
2018-01-18T01:15:59.033Z,1001.29
2018-01-18T01:16:59.033Z,1001.32
2018-01-18T01:17:58.998Z,1001.23
2018-01-18T01:18:58.982Z,1001.22
2018-01-18T01:19:58.964Z,1001.19
2018-01-18T01:20:58.950Z,1001.16
2018-01-18T01:21:58.948Z,1001.13
2018-01-18T01:22:58.909Z,1001.14
2018-01-18T01:23:58.886Z,1001.11
2018-01-18T01:24:58.872Z,1001.07
2018-01-18T01:25:58.854Z,1001.12
2018-01-18T01:26:58.856Z,1001.13
2018-01-18T01:27:58.817Z,1001.12
2018-01-18T01:28:58.799Z,1001.16
2018-01-18T01:29:58.833Z,1001.11
2018-01-18T01:30:58.765Z,1001.12
2018-01-18T01:31:58.746Z,1001.05
2018-01-18T01:32:58.742Z,1001.03
2018-01-18T01:33:58.722Z,1000.99
2018-01-18T01:34:58.690Z,1000.99
2018-01-18T01:35:58.674Z,1001.00
2018-01-18T01:36:58.654Z,1000.91
2018-01-18T01:37:58.653Z,1000.90
2018-01-18T01:38:58.630Z,1000.84
2018-01-18T01:39:58.599Z,1000.75
2018-01-18T01:40:58.578Z,1000.68
2018-01-18T01:41:58.558Z,1000.63
2018-01-18T01:42:58.538Z,1000.58
2018-01-18T01:43:58.538Z,1000.57
2018-01-18T01:44:58.506Z,1000.51
2018-01-18T01:45:58.488Z,1000.47
2018-01-18T01:46:58.470Z,1000.49
2018-01-18T01:47:58.455Z,1000.39
2018-01-18T01:48:58.446Z,1000.27
2018-01-18T01:49:58.412Z,1000.23
2018-01-18T01:50:58.392Z,1000.18
2018-01-18T01:51:58.376Z,1000.19
2018-01-18T01:52:58.356Z,1000.20
2018-01-18T01:53:58.359Z,1000.21
2018-01-18T01:54:58.323Z,1000.13
2018-01-18T01:55:58.305Z,1000.04
2018-01-18T01:56:58.286Z,1000.10
2018-01-18T01:57:58.267Z,1000.02
2018-01-18T01:58:58.248Z,999.98
2018-01-18T01:59:58.246Z,999.93
2018-01-18T02:00:58.212Z,999.89
2018-01-18T02:01:58.207Z,999.94
2018-01-18T02:02:58.174Z,999.99
2018-01-18T02:03:58.157Z,1000.09
2018-01-18T02:04:58.136Z,1000.05
2018-01-18T02:05:58.142Z,1000.19
2018-01-18T02:06:58.104Z,1000.21
2018-01-18T02:07:58.086Z,1000.21
2018-01-18T02:08:58.066Z,1000.18
2018-01-18T02:09:58.047Z,1000.18
2018-01-18T02:10:58.028Z,1000.13
2018-01-18T02:11:58.026Z,1000.03
2018-01-18T02:12:57.991Z,1000.07
2018-01-18T02:13:57.976Z,1000.05
2018-01-18T02:14:57.957Z,1000.01
2018-01-18T02:15:57.936Z,999.92
2018-01-18T02:16:57.936Z,999.83
2018-01-18T02:17:57.900Z,999.82
2018-01-18T02:18:57.884Z,999.77
2018-01-18T02:19:57.865Z,999.73
2018-01-18T02:20:57.861Z,999.75
2018-01-18T02:21:57.830Z,999.69
2018-01-18T02:22:57.805Z,999.68
2018-01-18T02:23:57.807Z,999.58
2018-01-18T02:24:57.775Z,999.59
2018-01-18T02:25:57.754Z,999.55
2018-01-18T02:26:57.734Z,999.53
2018-01-18T02:27:57.718Z,999.51
2018-01-18T02:28:57.720Z,999.59
2018-01-18T02:29:57.683Z,999.45
2018-01-18T02:30:57.663Z,999.41
2018-01-18T02:31:57.643Z,999.39
2018-01-18T02:32:57.627Z,999.35
2018-01-18T02:33:57.609Z,999.31
2018-01-18T02:34:57.604Z,999.33
2018-01-18T02:35:57.570Z,999.28
2018-01-18T02:36:57.552Z,999.19
2018-01-18T02:37:57.532Z,999.08
2018-01-18T02:38:57.517Z,999.05
2018-01-18T02:39:57.514Z,998.97
2018-01-18T02:40:57.481Z,998.93
2018-01-18T02:41:57.461Z,998.88
2018-01-18T02:42:57.439Z,998.83
2018-01-18T02:43:57.425Z,998.75
2018-01-18T02:44:57.424Z,998.70
2018-01-18T02:45:57.389Z,998.72
2018-01-18T02:46:57.371Z,998.68
2018-01-18T02:47:57.352Z,998.75
2018-01-18T02:48:57.343Z,998.61
2018-01-18T02:49:57.333Z,998.56
2018-01-18T02:50:57.294Z,998.57
2018-01-18T02:51:57.284Z,998.48
2018-01-18T02:52:57.283Z,998.39
2018-01-18T02:53:57.244Z,998.35
2018-01-18T02:54:57.222Z,998.32
2018-01-18T02:55:57.205Z,998.29
2018-01-18T02:56:57.202Z,998.25
2018-01-18T02:57:57.170Z,998.20
2018-01-18T02:58:57.166Z,998.13
2018-01-18T02:59:57.132Z,998.07
2018-01-18T03:00:57.111Z,998.04
2018-01-18T03:01:57.096Z,998.00
2018-01-18T03:02:57.079Z,997.92
2018-01-18T03:03:57.075Z,997.87
2018-01-18T03:04:57.041Z,997.82
2018-01-18T03:05:57.024Z,997.74
2018-01-18T03:06:57.033Z,997.66
2018-01-18T03:07:56.988Z,997.68
2018-01-18T03:08:56.969Z,997.60
2018-01-18T03:09:56.965Z,997.59
2018-01-18T03:10:56.930Z,997.52
2018-01-18T03:11:56.916Z,997.44
2018-01-18T03:12:56.919Z,997.43
2018-01-18T03:13:56.879Z,997.33
2018-01-18T03:14:56.859Z,997.26
2018-01-18T03:15:56.853Z,997.23
2018-01-18T03:16:56.830Z,997.20
2018-01-18T03:17:56.799Z,997.07
2018-01-18T03:18:56.789Z,997.03
2018-01-18T03:19:56.768Z,996.96
2018-01-18T03:20:56.764Z,996.92
2018-01-18T03:21:56.732Z,996.86
2018-01-18T03:22:56.712Z,996.79
2018-01-18T03:23:56.714Z,996.74
2018-01-18T03:24:56.675Z,996.77
2018-01-18T03:25:56.660Z,996.66
2018-01-18T03:26:56.641Z,996.62
2018-01-18T03:27:56.618Z,996.57
2018-01-18T03:28:56.603Z,996.51
2018-01-18T03:29:56.603Z,996.42
2018-01-18T03:30:56.565Z,996.33
2018-01-18T03:31:56.548Z,996.26
2018-01-18T03:32:56.529Z,996.24
2018-01-18T03:33:56.524Z,996.17
2018-01-18T03:34:56.492Z,996.26
2018-01-18T03:35:56.488Z,996.15
2018-01-18T03:36:56.472Z,996.02
2018-01-18T03:37:56.438Z,995.94
2018-01-18T03:38:56.417Z,995.90
2018-01-18T03:39:56.401Z,995.82
2018-01-18T03:40:56.398Z,995.77
2018-01-18T03:41:56.360Z,995.67
2018-01-18T03:42:56.343Z,995.62
2018-01-18T03:43:56.328Z,995.62
2018-01-18T03:44:56.318Z,995.49
2018-01-18T03:45:56.287Z,995.48
2018-01-18T03:46:56.282Z,995.36
2018-01-18T03:47:56.250Z,995.26
2018-01-18T03:48:56.233Z,995.15
2018-01-18T03:49:56.216Z,995.16
2018-01-18T03:50:56.208Z,995.05
2018-01-18T03:51:56.176Z,994.97
2018-01-18T03:52:56.159Z,995.02
2018-01-18T03:53:56.158Z,995.08
2018-01-18T03:54:56.120Z,995.18
2018-01-18T03:55:56.102Z,995.00
2018-01-18T03:56:56.080Z,994.99
2018-01-18T03:57:56.066Z,994.90
2018-01-18T03:58:56.048Z,994.90
2018-01-18T03:59:56.039Z,994.85
2018-01-18T04:00:56.028Z,994.81
2018-01-18T04:01:55.992Z,994.67
2018-01-18T04:02:55.973Z,994.66
2018-01-18T04:03:55.954Z,994.61
2018-01-18T04:04:55.945Z,994.62
2018-01-18T04:05:55.918Z,994.54
2018-01-18T04:06:55.917Z,994.42
2018-01-18T04:07:55.878Z,994.41
2018-01-18T04:08:55.863Z,994.26
2018-01-18T04:09:55.841Z,994.22
2018-01-18T04:10:55.824Z,994.16
2018-01-18T04:11:55.804Z,994.12
2018-01-18T04:12:55.810Z,994.05
2018-01-18T04:13:55.767Z,994.04
2018-01-18T04:14:55.748Z,994.00
2018-01-18T04:15:55.747Z,993.97
2018-01-18T04:16:55.714Z,993.94
2018-01-18T04:17:55.695Z,993.86
2018-01-18T04:18:55.674Z,993.81
2018-01-18T04:19:55.670Z,993.71
2018-01-18T04:20:55.639Z,993.61
2018-01-18T04:21:55.618Z,993.57
2018-01-18T04:22:55.617Z,993.42
2018-01-18T04:23:55.582Z,993.39
2018-01-18T04:24:55.562Z,993.30
2018-01-18T04:25:55.545Z,993.23
2018-01-18T04:27:16.648Z,993.20
2018-01-18T04:27:55.505Z,993.15
2018-01-18T04:28:55.489Z,993.06
2018-01-18T04:29:55.473Z,993.09
2018-01-18T04:30:55.449Z,993.00
2018-01-18T04:31:55.451Z,992.86
2018-01-18T04:32:55.413Z,992.73
2018-01-18T04:33:55.393Z,992.70
2018-01-18T04:34:55.371Z,992.71
2018-01-18T04:35:55.356Z,992.70
2018-01-18T04:36:55.341Z,992.70
2018-01-18T04:37:55.340Z,992.60
2018-01-18T04:38:55.301Z,992.49
2018-01-18T04:39:55.282Z,992.40
2018-01-18T04:40:55.263Z,992.41
2018-01-18T04:41:55.243Z,992.37
2018-01-18T04:42:55.240Z,992.30
2018-01-18T04:43:55.206Z,992.31
2018-01-18T04:44:55.192Z,992.26
2018-01-18T04:45:55.174Z,992.27
2018-01-18T04:46:55.150Z,992.15
2018-01-18T04:47:55.147Z,992.02
2018-01-18T04:48:55.112Z,991.95
2018-01-18T04:49:55.112Z,991.83
2018-01-18T04:50:55.074Z,991.84
2018-01-18T04:51:55.055Z,991.79
2018-01-18T04:52:55.050Z,991.83
2018-01-18T04:53:55.019Z,991.81
2018-01-18T04:54:54.995Z,991.82
2018-01-18T04:55:54.979Z,991.85
2018-01-18T04:56:54.960Z,991.86
2018-01-18T04:57:54.946Z,991.67
2018-01-18T04:58:54.940Z,991.69
2018-01-18T04:59:54.904Z,991.68
2018-01-18T05:00:54.882Z,991.53
2018-01-18T05:01:54.868Z,991.53
2018-01-18T05:02:54.844Z,991.44
2018-01-18T05:03:54.842Z,991.44
2018-01-18T05:04:54.855Z,991.34
2018-01-18T05:05:54.809Z,991.34
2018-01-18T05:06:54.771Z,991.28
2018-01-18T05:07:54.752Z,991.36
2018-01-18T05:08:54.735Z,991.26
2018-01-18T05:09:54.717Z,991.18
2018-01-18T05:10:54.696Z,991.05
2018-01-18T05:11:54.696Z,991.09
2018-01-18T05:12:54.656Z,990.98
2018-01-18T05:13:54.640Z,991.00
2018-01-18T05:14:54.620Z,990.91
2018-01-18T05:15:54.602Z,990.84
2018-01-18T05:16:54.600Z,990.82
2018-01-18T05:17:54.564Z,990.88
2018-01-18T05:18:54.544Z,990.88
2018-01-18T05:19:54.544Z,990.74
2018-01-18T05:20:54.509Z,990.76
2018-01-18T05:21:54.490Z,990.60
2018-01-18T05:22:54.485Z,990.55
2018-01-18T05:23:54.468Z,990.50
2018-01-18T05:24:54.432Z,990.50
2018-01-18T05:25:54.414Z,990.41
2018-01-18T05:26:54.397Z,990.35
2018-01-18T05:27:54.391Z,990.23
2018-01-18T05:28:54.357Z,990.41
2018-01-18T05:29:54.337Z,990.22
2018-01-18T05:30:54.339Z,990.21
2018-01-18T05:31:54.341Z,990.21
2018-01-18T05:32:54.283Z,990.28
2018-01-18T05:33:54.270Z,990.21
2018-01-18T05:34:54.247Z,990.08
2018-01-18T05:35:54.227Z,990.05
2018-01-18T05:36:54.227Z,990.11
2018-01-18T05:37:54.228Z,990.01
2018-01-18T05:38:54.186Z,990.13
2018-01-18T05:39:54.154Z,989.82
2018-01-18T05:40:54.138Z,989.96
2018-01-18T05:41:54.134Z,989.93
2018-01-18T05:42:54.097Z,989.94
2018-01-18T05:43:54.080Z,989.99
2018-01-18T05:44:54.065Z,989.62
2018-01-18T05:45:54.049Z,989.91
2018-01-18T05:46:54.025Z,989.83
2018-01-18T05:47:54.018Z,989.85
2018-01-18T05:48:53.989Z,989.72
2018-01-18T05:49:53.972Z,989.66
2018-01-18T05:50:53.965Z,989.70
2018-01-18T05:51:53.950Z,989.67
2018-01-18T05:52:53.917Z,989.52
2018-01-18T05:53:53.897Z,989.46
2018-01-18T05:54:53.877Z,989.42
2018-01-18T05:55:53.859Z,989.53
2018-01-18T05:56:53.846Z,989.36
2018-01-18T05:57:53.839Z,989.40
2018-01-18T05:58:53.806Z,989.13
2018-01-18T05:59:53.803Z,989.25
2018-01-18T06:00:53.770Z,989.27
2018-01-18T06:01:53.752Z,989.20
2018-01-18T06:02:53.736Z,989.00
2018-01-18T06:03:53.719Z,988.89
2018-01-18T06:04:53.695Z,988.97
2018-01-18T06:05:53.698Z,988.73
2018-01-18T06:06:53.666Z,988.67
2018-01-18T06:07:53.647Z,988.68
2018-01-18T06:08:53.626Z,988.83
2018-01-18T06:09:53.610Z,988.71
2018-01-18T06:10:53.607Z,988.63
2018-01-18T06:11:53.574Z,988.58
2018-01-18T06:12:53.557Z,988.57
2018-01-18T06:13:53.535Z,988.57
2018-01-18T06:14:53.517Z,988.64
2018-01-18T06:15:53.500Z,988.53
2018-01-18T06:16:53.510Z,988.41
2018-01-18T06:17:53.466Z,988.40
2018-01-18T06:18:53.445Z,988.51
2018-01-18T06:19:53.432Z,988.31
2018-01-18T06:20:53.413Z,988.62
2018-01-18T06:21:53.411Z,988.35
2018-01-18T06:22:53.375Z,988.39
2018-01-18T06:23:53.360Z,988.38
2018-01-18T06:24:53.341Z,988.29
2018-01-18T06:25:53.324Z,988.32
2018-01-18T06:26:53.328Z,988.31
2018-01-18T06:27:53.289Z,988.04
2018-01-18T06:28:53.271Z,988.13
2018-01-18T06:29:53.254Z,987.95
2018-01-18T06:30:53.233Z,987.86
2018-01-18T06:31:53.219Z,987.91
2018-01-18T06:32:53.215Z,987.84
2018-01-18T06:33:53.181Z,987.73
2018-01-18T06:34:53.177Z,987.70
2018-01-18T06:35:53.147Z,987.73
2018-01-18T06:36:53.129Z,987.56
2018-01-18T06:37:53.107Z,987.52
2018-01-18T06:38:53.114Z,987.69
2018-01-18T06:39:53.072Z,987.77
2018-01-18T06:40:53.053Z,987.67
2018-01-18T06:41:53.040Z,987.57
2018-01-18T06:42:53.022Z,987.55
2018-01-18T06:43:53.005Z,987.64
2018-01-18T06:44:53.002Z,987.47
2018-01-18T06:45:52.987Z,987.60
2018-01-18T06:46:52.951Z,987.63
2018-01-18T06:47:52.933Z,987.61
2018-01-18T06:48:52.916Z,987.44
2018-01-18T06:49:52.900Z,987.47
2018-01-18T06:50:52.879Z,987.37
2018-01-18T06:51:52.879Z,987.52
2018-01-18T06:52:52.846Z,987.57
2018-01-18T06:53:52.828Z,987.55
2018-01-18T06:54:52.808Z,987.49
2018-01-18T06:55:52.790Z,987.49
2018-01-18T06:56:52.787Z,987.61
2018-01-18T06:57:52.754Z,987.60
2018-01-18T06:58:52.739Z,987.50
2018-01-18T06:59:52.738Z,987.41
2018-01-18T07:00:52.705Z,987.48
2018-01-18T07:01:52.688Z,987.36
2018-01-18T07:02:52.684Z,987.39
2018-01-18T07:03:52.649Z,987.34
2018-01-18T07:04:52.632Z,987.41
2018-01-18T07:05:52.616Z,987.25
2018-01-18T07:06:52.597Z,987.47
2018-01-18T07:07:52.583Z,987.32
2018-01-18T07:08:52.580Z,987.29
2018-01-18T07:09:52.545Z,987.32
2018-01-18T07:10:52.555Z,987.25
2018-01-18T07:11:52.513Z,987.26
2018-01-18T07:12:52.494Z,987.30
2018-01-18T07:13:52.475Z,987.25
2018-01-18T07:14:52.465Z,987.16
2018-01-18T07:15:52.443Z,987.15
2018-01-18T07:16:52.444Z,986.95
2018-01-18T07:17:52.920Z,987.12
2018-01-18T07:18:52.398Z,986.98
2018-01-18T07:19:52.377Z,987.04
2018-01-18T07:20:52.376Z,987.15
2018-01-18T07:21:52.361Z,986.93
2018-01-18T07:22:52.331Z,987.03
2018-01-18T07:23:52.315Z,986.86
2018-01-18T07:24:52.298Z,986.75
2018-01-18T07:25:52.281Z,986.92
2018-01-18T07:26:52.266Z,986.89
2018-01-18T07:27:52.265Z,986.80
2018-01-18T07:28:52.237Z,986.72
2018-01-18T07:29:52.221Z,986.76
2018-01-18T07:30:52.222Z,986.83
2018-01-18T07:32:13.197Z,986.71
2018-01-18T07:32:52.174Z,986.95
2018-01-18T07:33:52.158Z,986.70
2018-01-18T07:34:52.142Z,986.73
2018-01-18T07:35:52.146Z,986.81
2018-01-18T07:36:52.115Z,986.55
2018-01-18T07:37:52.099Z,986.60
2018-01-18T07:38:52.080Z,986.76
2018-01-18T07:39:52.070Z,986.56
2018-01-18T07:40:52.071Z,986.60
2018-01-18T07:41:52.035Z,986.52
2018-01-18T07:42:52.019Z,986.51
2018-01-18T07:43:52.009Z,986.56
2018-01-18T07:44:51.988Z,986.49
2018-01-18T07:45:51.980Z,986.70
2018-01-18T07:46:51.978Z,986.55
2018-01-18T07:47:51.952Z,986.54
2018-01-18T07:48:51.979Z,986.54
2018-01-18T07:49:51.919Z,986.43
2018-01-18T07:50:51.906Z,986.44
2018-01-18T07:51:51.904Z,986.50
2018-01-18T07:52:51.875Z,986.37
2018-01-18T07:53:51.866Z,986.38
2018-01-18T07:54:51.848Z,986.38
2018-01-18T07:55:51.828Z,986.32
2018-01-18T07:56:51.816Z,986.28
2018-01-18T07:57:51.817Z,986.24
2018-01-18T07:58:51.791Z,986.34
2018-01-18T07:59:51.773Z,986.35
2018-01-18T08:00:51.759Z,986.22
2018-01-18T08:01:51.746Z,986.13
2018-01-18T08:02:51.746Z,986.44
2018-01-18T08:03:51.716Z,986.42
2018-01-18T08:04:51.703Z,986.19
2018-01-18T08:05:51.690Z,986.37
2018-01-18T08:06:51.673Z,986.37
2018-01-18T08:07:51.672Z,986.45
2018-01-18T08:08:51.644Z,986.43
2018-01-18T08:09:51.632Z,986.14
2018-01-18T08:10:51.630Z,986.22
2018-01-18T08:11:51.600Z,986.12
2018-01-18T08:12:51.589Z,986.16
2018-01-18T08:13:51.589Z,986.49
2018-01-18T08:14:51.558Z,986.27
2018-01-18T08:15:51.546Z,986.49
2018-01-18T08:16:51.808Z,986.33
2018-01-18T08:17:51.518Z,986.41
2018-01-18T08:18:51.523Z,986.35
2018-01-18T08:19:51.494Z,986.19
2018-01-18T08:20:51.476Z,986.18
2018-01-18T08:21:51.464Z,986.07
2018-01-18T08:22:51.448Z,986.19
2018-01-18T08:23:51.434Z,986.28
2018-01-18T08:24:51.442Z,986.13
2018-01-18T08:25:51.409Z,986.27
2018-01-18T08:26:51.398Z,986.17
2018-01-18T08:27:51.383Z,986.20
2018-01-18T08:28:51.366Z,986.14
2018-01-18T08:29:51.370Z,986.01
2018-01-18T08:30:51.339Z,986.11
2018-01-18T08:31:51.327Z,986.28
2018-01-18T08:32:51.315Z,986.07
2018-01-18T08:33:51.299Z,985.98
2018-01-18T08:34:51.300Z,985.98
2018-01-18T08:35:51.275Z,985.98
2018-01-18T08:36:51.274Z,986.13
2018-01-18T08:37:51.246Z,985.97
2018-01-18T08:38:51.229Z,985.77
2018-01-18T08:39:51.230Z,986.25
2018-01-18T08:40:51.207Z,986.08
2018-01-18T08:41:51.212Z,986.09
2018-01-18T08:42:51.192Z,986.02
2018-01-18T08:43:51.165Z,986.12
2018-01-18T08:44:51.152Z,985.98
2018-01-18T08:45:51.138Z,986.28
2018-01-18T08:46:51.899Z,986.14
2018-01-18T08:47:51.110Z,986.04
2018-01-18T08:48:51.107Z,986.00
2018-01-18T08:49:51.088Z,986.00
2018-01-18T08:50:51.070Z,986.39
2018-01-18T08:51:51.058Z,986.19
2018-01-18T08:52:51.062Z,985.90
2018-01-18T08:53:51.032Z,986.04
2018-01-18T08:54:51.016Z,986.15
2018-01-18T08:55:51.005Z,986.09
2018-01-18T08:56:50.994Z,986.26
2018-01-18T08:57:50.995Z,986.11
2018-01-18T08:58:50.962Z,986.17
2018-01-18T08:59:50.957Z,986.26
2018-01-18T09:00:50.940Z,986.22
2018-01-18T09:01:50.934Z,986.21
2018-01-18T09:02:50.915Z,986.14
2018-01-18T09:03:50.916Z,986.16
2018-01-18T09:04:50.903Z,986.20
2018-01-18T09:05:50.876Z,986.12
2018-01-18T09:06:50.865Z,986.09
2018-01-18T09:07:50.861Z,986.34
2018-01-18T09:08:50.852Z,986.25
2018-01-18T09:09:50.832Z,986.31
2018-01-18T09:10:50.810Z,986.29
2018-01-18T09:11:50.801Z,986.17
2018-01-18T09:12:50.804Z,986.42
2018-01-18T09:13:50.775Z,986.28
2018-01-18T09:14:50.761Z,986.43
2018-01-18T09:15:50.752Z,986.48
2018-01-18T09:16:50.741Z,986.34
2018-01-18T09:17:50.724Z,986.40
2018-01-18T09:18:50.738Z,986.56
2018-01-18T09:19:50.697Z,986.45
2018-01-18T09:20:50.687Z,986.58
2018-01-18T09:21:50.676Z,986.52
2018-01-18T09:22:50.678Z,986.59
2018-01-18T09:23:50.663Z,986.48
2018-01-18T09:24:50.634Z,986.46
2018-01-18T09:25:50.629Z,986.50
2018-01-18T09:26:50.624Z,986.31
2018-01-18T09:27:50.593Z,986.28
2018-01-18T09:28:50.589Z,986.50
2018-01-18T09:29:50.573Z,986.56
2018-01-18T09:30:50.563Z,986.84
2018-01-18T09:31:50.549Z,986.73
2018-01-18T09:32:50.550Z,986.97
2018-01-18T09:33:50.523Z,986.73
2018-01-18T09:34:50.542Z,986.56
2018-01-18T09:35:50.498Z,987.04
2018-01-18T09:36:50.486Z,987.05
2018-01-18T09:37:50.485Z,986.86
2018-01-18T09:38:50.470Z,987.09
2018-01-18T09:39:50.445Z,986.93
2018-01-18T09:40:50.434Z,987.01
2018-01-18T09:41:50.423Z,987.12
2018-01-18T09:42:50.435Z,987.00
2018-01-18T09:43:50.398Z,987.21
2018-01-18T09:44:50.386Z,987.13
2018-01-18T09:45:50.374Z,987.38
2018-01-18T09:46:50.360Z,987.64
2018-01-18T09:47:50.349Z,987.67
2018-01-18T09:48:50.354Z,987.79
2018-01-18T09:49:50.325Z,987.97
2018-01-18T09:50:50.310Z,987.82
2018-01-18T09:51:50.307Z,987.82
2018-01-18T09:52:50.290Z,988.10
2018-01-18T09:53:50.274Z,988.11
2018-01-18T09:54:50.272Z,987.93
2018-01-18T09:55:50.248Z,988.10
2018-01-18T09:56:50.237Z,988.11
2018-01-18T09:57:50.221Z,988.06
2018-01-18T09:58:50.210Z,988.38
2018-01-18T09:59:50.218Z,988.45
2018-01-18T10:00:50.187Z,988.56
2018-01-18T10:01:50.176Z,988.37
2018-01-18T10:02:50.161Z,988.49
2018-01-18T10:03:50.145Z,988.56
2018-01-18T10:04:50.137Z,988.44
2018-01-18T10:05:50.140Z,988.84
2018-01-18T10:06:50.114Z,988.78
2018-01-18T10:07:50.098Z,988.82
2018-01-18T10:08:50.088Z,988.95
2018-01-18T10:09:50.094Z,988.84
2018-01-18T10:10:50.071Z,988.21
2018-01-18T10:11:50.087Z,988.45
2018-01-18T10:12:50.036Z,988.85
2018-01-18T10:13:50.024Z,989.40
2018-01-18T10:14:50.009Z,989.01
2018-01-18T10:15:50.071Z,989.01
2018-01-18T10:16:49.996Z,989.03
2018-01-18T10:17:49.972Z,989.24
2018-01-18T10:18:49.958Z,989.18
2018-01-18T10:19:50.034Z,989.39
2018-01-18T10:20:49.946Z,989.40
2018-01-18T10:21:49.940Z,989.11
2018-01-18T10:22:49.905Z,989.19
2018-01-18T10:23:49.897Z,989.52
2018-01-18T10:24:49.893Z,989.52
2018-01-18T10:25:49.871Z,989.78
2018-01-18T10:26:49.857Z,989.54
2018-01-18T10:27:49.857Z,989.68
2018-01-18T10:28:49.826Z,989.91
2018-01-18T10:29:49.811Z,989.72
2018-01-18T10:30:49.801Z,989.94
2018-01-18T10:31:49.787Z,989.85
2018-01-18T10:32:49.783Z,990.03
2018-01-18T10:33:49.781Z,990.14
2018-01-18T10:34:49.749Z,990.08
2018-01-18T10:35:49.735Z,990.25
2018-01-18T10:36:49.721Z,990.09
2018-01-18T10:37:49.725Z,990.25
2018-01-18T10:38:49.711Z,990.26
2018-01-18T10:39:49.683Z,990.26
2018-01-18T10:40:49.681Z,990.31
2018-01-18T10:41:49.660Z,990.63
2018-01-18T10:42:49.645Z,990.26
2018-01-18T10:43:49.648Z,990.51
2018-01-18T10:44:49.619Z,990.71
2018-01-18T10:45:49.607Z,990.76
2018-01-18T10:46:49.797Z,991.09
2018-01-18T10:47:49.577Z,991.19
2018-01-18T10:48:49.588Z,990.95
2018-01-18T10:49:49.555Z,990.93
2018-01-18T10:50:49.541Z,990.97
2018-01-18T10:51:49.530Z,990.94
2018-01-18T10:52:49.510Z,991.07
2018-01-18T10:53:49.498Z,991.00
2018-01-18T10:54:49.503Z,991.20
2018-01-18T10:55:49.472Z,991.17
2018-01-18T10:56:49.464Z,991.39
2018-01-18T10:57:49.449Z,991.66
2018-01-18T10:58:49.432Z,991.43
2018-01-18T10:59:49.437Z,991.51
2018-01-18T11:00:49.420Z,991.61
2018-01-18T11:01:49.392Z,991.55
2018-01-18T11:02:49.376Z,991.79
2018-01-18T11:03:49.369Z,991.62
2018-01-18T11:04:49.351Z,991.97
2018-01-18T11:05:49.353Z,992.13
2018-01-18T11:06:49.340Z,991.83
2018-01-18T11:07:49.315Z,991.90
2018-01-18T11:08:49.298Z,991.97
2018-01-18T11:09:49.288Z,992.15
2018-01-18T11:10:49.285Z,992.09
2018-01-18T11:11:49.260Z,992.09
2018-01-18T11:12:49.245Z,992.28
2018-01-18T11:13:49.231Z,992.29
2018-01-18T11:14:49.217Z,992.41
2018-01-18T11:15:49.205Z,992.40
2018-01-18T11:16:49.209Z,992.30
2018-01-18T11:17:49.179Z,992.33
2018-01-18T11:18:49.165Z,992.28
2018-01-18T11:19:49.147Z,992.47
2018-01-18T11:20:49.139Z,992.39
2018-01-18T11:21:49.122Z,992.54
2018-01-18T11:22:49.126Z,992.56
2018-01-18T11:23:49.095Z,992.82
2018-01-18T11:24:49.082Z,992.23
2018-01-18T11:25:49.070Z,992.53
2018-01-18T11:26:49.056Z,992.69
2018-01-18T11:27:49.052Z,992.57
2018-01-18T11:28:49.042Z,992.87
2018-01-18T11:29:49.018Z,992.74
2018-01-18T11:30:49.000Z,992.73
2018-01-18T11:31:48.987Z,992.88
2018-01-18T11:32:48.990Z,992.84
2018-01-18T11:33:48.956Z,993.07
2018-01-18T11:34:48.946Z,992.99
2018-01-18T11:35:48.934Z,993.32
2018-01-18T11:36:48.929Z,993.20
2018-01-18T11:37:48.922Z,993.20
2018-01-18T11:38:48.891Z,993.11
2018-01-18T11:39:48.878Z,993.15
2018-01-18T11:40:48.865Z,993.24
2018-01-18T11:41:48.855Z,993.14
2018-01-18T11:42:48.859Z,993.29
2018-01-18T11:43:48.827Z,993.25
2018-01-18T11:44:48.826Z,993.51
2018-01-18T11:45:48.798Z,993.35
2018-01-18T11:46:48.785Z,993.65
2018-01-18T11:47:48.784Z,993.48
2018-01-18T11:48:48.757Z,993.58
2018-01-18T11:49:48.744Z,993.59
2018-01-18T11:50:48.732Z,993.44
2018-01-18T11:51:48.718Z,993.82
2018-01-18T11:52:48.722Z,993.79
2018-01-18T11:53:48.690Z,993.63
2018-01-18T11:54:48.677Z,993.73
2018-01-18T11:55:48.667Z,993.84
2018-01-18T11:56:48.657Z,993.78
2018-01-18T11:57:48.636Z,993.75
2018-01-18T11:58:48.642Z,993.83
2018-01-18T11:59:48.610Z,994.00
2018-01-18T12:00:48.600Z,993.89
2018-01-18T12:01:48.584Z,993.98
2018-01-18T12:02:48.574Z,994.02
2018-01-18T12:03:48.557Z,994.00
2018-01-18T12:04:48.556Z,994.11
2018-01-18T12:05:48.534Z,994.12
2018-01-18T12:06:48.522Z,994.31
2018-01-18T12:07:48.503Z,994.11
2018-01-18T12:08:48.493Z,994.16
2018-01-18T12:09:48.500Z,994.24
2018-01-18T12:10:48.473Z,994.27
2018-01-18T12:11:48.452Z,994.20
2018-01-18T12:12:48.442Z,994.26
2018-01-18T12:13:48.431Z,994.41
2018-01-18T12:14:48.409Z,994.42
2018-01-18T12:15:48.412Z,994.41
2018-01-18T12:16:48.406Z,994.49
2018-01-18T12:17:48.375Z,994.61
2018-01-18T12:18:48.406Z,994.55
2018-01-18T12:19:48.348Z,994.69
2018-01-18T12:20:48.356Z,994.72
2018-01-18T12:21:48.337Z,994.70
2018-01-18T12:22:48.307Z,994.78
2018-01-18T12:23:48.295Z,994.66